sensor_id;sensor_type;location;lat;lon;timestamp;P1;durP1;ratioP1;P2;durP2;ratioP2
17422;SDS011;8829;47.932;7.810;2023-02-15T00:00:52;10.77;;;6.97;;
17422;SDS011;8829;47.932;7.810;2023-02-15T00:03:20;11.20;;;8.20;;
17422;SDS011;8829;47.932;7.810;2023-02-15T00:05:48;12.23;;;8.97;;
17422;SDS011;8829;47.932;7.810;2023-02-15T00:08:15;13.00;;;9.03;;
17422;SDS011;8829;47.932;7.810;2023-02-15T00:10:42;12.67;;;9.07;;
17422;SDS011;8829;47.932;7.810;2023-02-15T00:13:08;15.40;;;10.03;;
17422;SDS011;8829;47.932;7.810;2023-02-15T00:15:35;15.17;;;10.83;;
17422;SDS011;8829;47.932;7.810;2023-02-15T00:18:01;18.13;;;9.97;;
17422;SDS011;8829;47.932;7.810;2023-02-15T00:20:28;17.13;;;9.80;;
17422;SDS011;8829;47.932;7.810;2023-02-15T00:22:56;14.97;;;10.37;;
17422;SDS011;8829;47.932;7.810;2023-02-15T00:25:23;17.00;;;10.43;;
17422;SDS011;8829;47.932;7.810;2023-02-15T00:27:50;11.63;;;8.47;;
17422;SDS011;8829;47.932;7.810;2023-02-15T00:30:16;11.07;;;8.53;;
17422;SDS011;8829;47.932;7.810;2023-02-15T00:32:43;10.70;;;7.67;;
17422;SDS011;8829;47.932;7.810;2023-02-15T00:35:11;10.40;;;7.83;;
17422;SDS011;8829;47.932;7.810;2023-02-15T00:37:37;12.27;;;8.27;;
17422;SDS011;8829;47.932;7.810;2023-02-15T00:40:06;11.90;;;7.97;;
17422;SDS011;8829;47.932;7.810;2023-02-15T00:42:33;11.83;;;8.27;;
17422;SDS011;8829;47.932;7.810;2023-02-15T00:45:00;11.83;;;7.83;;
17422;SDS011;8829;47.932;7.810;2023-02-15T00:47:27;9.83;;;7.47;;
17422;SDS011;8829;47.932;7.810;2023-02-15T00:49:53;12.50;;;7.83;;
17422;SDS011;8829;47.932;7.810;2023-02-15T00:52:20;10.63;;;8.00;;
17422;SDS011;8829;47.932;7.810;2023-02-15T00:54:47;10.73;;;8.00;;
17422;SDS011;8829;47.932;7.810;2023-02-15T00:57:15;9.70;;;8.70;;
17422;SDS011;8829;47.932;7.810;2023-02-15T00:59:41;12.50;;;8.47;;
17422;SDS011;8829;47.932;7.810;2023-02-15T01:02:08;10.83;;;9.27;;
17422;SDS011;8829;47.932;7.810;2023-02-15T01:04:35;13.47;;;9.43;;
17422;SDS011;8829;47.932;7.810;2023-02-15T01:07:01;9.97;;;8.63;;
17422;SDS011;8829;47.932;7.810;2023-02-15T01:09:28;9.77;;;8.47;;
17422;SDS011;8829;47.932;7.810;2023-02-15T01:11:55;11.77;;;8.80;;
17422;SDS011;8829;47.932;7.810;2023-02-15T01:14:23;9.07;;;8.17;;
17422;SDS011;8829;47.932;7.810;2023-02-15T01:16:50;9.67;;;7.87;;
17422;SDS011;8829;47.932;7.810;2023-02-15T01:19:16;10.33;;;9.03;;
17422;SDS011;8829;47.932;7.810;2023-02-15T01:21:43;10.23;;;8.70;;
17422;SDS011;8829;47.932;7.810;2023-02-15T01:24:11;10.50;;;9.20;;
17422;SDS011;8829;47.932;7.810;2023-02-15T01:26:38;10.67;;;8.67;;
17422;SDS011;8829;47.932;7.810;2023-02-15T01:29:05;9.20;;;8.30;;
17422;SDS011;8829;47.932;7.810;2023-02-15T01:31:33;9.77;;;8.77;;
17422;SDS011;8829;47.932;7.810;2023-02-15T01:34:00;8.93;;;8.03;;
17422;SDS011;8829;47.932;7.810;2023-02-15T01:36:26;9.37;;;8.40;;
17422;SDS011;8829;47.932;7.810;2023-02-15T01:38:53;8.93;;;8.07;;
17422;SDS011;8829;47.932;7.810;2023-02-15T01:41:20;9.27;;;8.37;;
17422;SDS011;8829;47.932;7.810;2023-02-15T01:43:49;9.90;;;8.90;;
17422;SDS011;8829;47.932;7.810;2023-02-15T01:46:18;10.47;;;9.37;;
17422;SDS011;8829;47.932;7.810;2023-02-15T01:48:50;9.43;;;8.47;;
17422;SDS011;8829;47.932;7.810;2023-02-15T01:51:21;8.87;;;8.00;;
17422;SDS011;8829;47.932;7.810;2023-02-15T01:53:53;9.73;;;8.80;;
17422;SDS011;8829;47.932;7.810;2023-02-15T01:56:24;9.53;;;8.63;;
17422;SDS011;8829;47.932;7.810;2023-02-15T01:58:52;9.17;;;8.17;;
17422;SDS011;8829;47.932;7.810;2023-02-15T02:01:22;10.13;;;9.13;;
17422;SDS011;8829;47.932;7.810;2023-02-15T02:03:56;9.13;;;8.23;;
17422;SDS011;8829;47.932;7.810;2023-02-15T02:06:26;7.83;;;7.13;;
17422;SDS011;8829;47.932;7.810;2023-02-15T02:08:53;8.67;;;7.70;;
17422;SDS011;8829;47.932;7.810;2023-02-15T02:11:22;9.20;;;8.30;;
17422;SDS011;8829;47.932;7.810;2023-02-15T02:13:48;8.50;;;7.63;;
17422;SDS011;8829;47.932;7.810;2023-02-15T02:16:19;9.20;;;8.03;;
17422;SDS011;8829;47.932;7.810;2023-02-15T02:18:56;8.53;;;7.63;;
17422;SDS011;8829;47.932;7.810;2023-02-15T02:21:37;9.20;;;7.97;;
17422;SDS011;8829;47.932;7.810;2023-02-15T02:27:21;8.83;;;7.93;;
17422;SDS011;8829;47.932;7.810;2023-02-15T02:30:20;8.27;;;7.47;;
17422;SDS011;8829;47.932;7.810;2023-02-15T02:33:09;10.67;;;7.50;;
17422;SDS011;8829;47.932;7.810;2023-02-15T02:35:56;8.80;;;7.90;;
17422;SDS011;8829;47.932;7.810;2023-02-15T02:38:33;7.77;;;7.07;;
17422;SDS011;8829;47.932;7.810;2023-02-15T02:41:12;7.97;;;7.17;;
17422;SDS011;8829;47.932;7.810;2023-02-15T02:43:46;9.97;;;7.73;;
17422;SDS011;8829;47.932;7.810;2023-02-15T02:46:20;9.13;;;7.73;;
17422;SDS011;8829;47.932;7.810;2023-02-15T02:48:52;10.47;;;8.13;;
17422;SDS011;8829;47.932;7.810;2023-02-15T02:51:19;10.67;;;7.63;;
17422;SDS011;8829;47.932;7.810;2023-02-15T02:53:47;9.20;;;7.33;;
17422;SDS011;8829;47.932;7.810;2023-02-15T02:56:20;9.13;;;7.47;;
17422;SDS011;8829;47.932;7.810;2023-02-15T02:58:50;11.40;;;7.80;;
17422;SDS011;8829;47.932;7.810;2023-02-15T03:01:22;9.50;;;7.70;;
17422;SDS011;8829;47.932;7.810;2023-02-15T03:03:55;9.17;;;7.17;;
17422;SDS011;8829;47.932;7.810;2023-02-15T03:06:24;10.40;;;7.43;;
17422;SDS011;8829;47.932;7.810;2023-02-15T03:08:56;10.57;;;8.13;;
17422;SDS011;8829;47.932;7.810;2023-02-15T03:11:27;8.37;;;7.57;;
17422;SDS011;8829;47.932;7.810;2023-02-15T03:13:54;8.17;;;7.37;;
17422;SDS011;8829;47.932;7.810;2023-02-15T03:16:20;8.47;;;7.57;;
17422;SDS011;8829;47.932;7.810;2023-02-15T03:18:55;9.13;;;8.07;;
17422;SDS011;8829;47.932;7.810;2023-02-15T03:21:35;8.70;;;7.90;;
17422;SDS011;8829;47.932;7.810;2023-02-15T03:24:06;9.03;;;8.23;;
17422;SDS011;8829;47.932;7.810;2023-02-15T03:26:36;8.93;;;7.93;;
17422;SDS011;8829;47.932;7.810;2023-02-15T03:29:05;9.20;;;7.97;;
17422;SDS011;8829;47.932;7.810;2023-02-15T03:31:34;8.80;;;7.90;;
17422;SDS011;8829;47.932;7.810;2023-02-15T03:34:06;8.87;;;7.83;;
17422;SDS011;8829;47.932;7.810;2023-02-15T03:36:36;10.47;;;8.20;;
17422;SDS011;8829;47.932;7.810;2023-02-15T03:39:10;8.83;;;7.93;;
17422;SDS011;8829;47.932;7.810;2023-02-15T03:41:42;8.27;;;7.47;;
17422;SDS011;8829;47.932;7.810;2023-02-15T03:44:15;9.10;;;8.20;;
17422;SDS011;8829;47.932;7.810;2023-02-15T03:46:49;10.70;;;7.57;;
17422;SDS011;8829;47.932;7.810;2023-02-15T03:49:22;9.97;;;8.30;;
17422;SDS011;8829;47.932;7.810;2023-02-15T03:51:54;9.43;;;8.47;;
17422;SDS011;8829;47.932;7.810;2023-02-15T03:54:24;9.43;;;8.53;;
17422;SDS011;8829;47.932;7.810;2023-02-15T03:57:10;9.03;;;8.13;;
17422;SDS011;8829;47.932;7.810;2023-02-15T03:59:56;10.10;;;9.10;;
17422;SDS011;8829;47.932;7.810;2023-02-15T04:02:43;9.07;;;8.00;;
17422;SDS011;8829;47.932;7.810;2023-02-15T04:05:22;9.17;;;8.27;;
17422;SDS011;8829;47.932;7.810;2023-02-15T04:07:49;8.80;;;7.90;;
17422;SDS011;8829;47.932;7.810;2023-02-15T04:10:16;8.37;;;7.57;;
17422;SDS011;8829;47.932;7.810;2023-02-15T04:13:01;9.47;;;8.47;;
17422;SDS011;8829;47.932;7.810;2023-02-15T04:15:27;8.30;;;7.50;;
17422;SDS011;8829;47.932;7.810;2023-02-15T04:18:12;10.27;;;9.20;;
17422;SDS011;8829;47.932;7.810;2023-02-15T04:20:40;10.40;;;9.30;;
17422;SDS011;8829;47.932;7.810;2023-02-15T04:23:27;9.33;;;8.43;;
17422;SDS011;8829;47.932;7.810;2023-02-15T04:26:11;10.27;;;8.40;;
17422;SDS011;8829;47.932;7.810;2023-02-15T04:28:37;14.23;;;9.20;;
17422;SDS011;8829;47.932;7.810;2023-02-15T04:31:04;10.03;;;8.57;;
17422;SDS011;8829;47.932;7.810;2023-02-15T04:33:31;10.50;;;7.73;;
17422;SDS011;8829;47.932;7.810;2023-02-15T04:35:59;9.13;;;7.73;;
17422;SDS011;8829;47.932;7.810;2023-02-15T04:38:26;11.67;;;9.90;;
17422;SDS011;8829;47.932;7.810;2023-02-15T04:40:52;9.30;;;7.00;;
17422;SDS011;8829;47.932;7.810;2023-02-15T04:43:19;8.67;;;6.53;;
17422;SDS011;8829;47.932;7.810;2023-02-15T04:45:49;11.10;;;8.13;;
17422;SDS011;8829;47.932;7.810;2023-02-15T04:48:16;9.70;;;7.07;;
17422;SDS011;8829;47.932;7.810;2023-02-15T04:50:43;8.83;;;7.07;;
17422;SDS011;8829;47.932;7.810;2023-02-15T04:53:11;8.37;;;6.33;;
17422;SDS011;8829;47.932;7.810;2023-02-15T04:55:38;10.87;;;6.10;;
17422;SDS011;8829;47.932;7.810;2023-02-15T04:58:05;11.13;;;7.20;;
17422;SDS011;8829;47.932;7.810;2023-02-15T05:00:32;11.23;;;7.60;;
17422;SDS011;8829;47.932;7.810;2023-02-15T05:02:58;9.90;;;6.93;;
17422;SDS011;8829;47.932;7.810;2023-02-15T05:05:25;8.33;;;6.40;;
17422;SDS011;8829;47.932;7.810;2023-02-15T05:07:52;8.80;;;6.60;;
17422;SDS011;8829;47.932;7.810;2023-02-15T05:10:20;8.23;;;5.67;;
17422;SDS011;8829;47.932;7.810;2023-02-15T05:12:46;13.63;;;8.83;;
17422;SDS011;8829;47.932;7.810;2023-02-15T05:15:13;12.80;;;8.07;;
17422;SDS011;8829;47.932;7.810;2023-02-15T05:17:40;10.00;;;8.40;;
17422;SDS011;8829;47.932;7.810;2023-02-15T05:20:07;10.43;;;8.13;;
17422;SDS011;8829;47.932;7.810;2023-02-15T05:22:34;8.23;;;7.43;;
17422;SDS011;8829;47.932;7.810;2023-02-15T05:25:00;8.20;;;6.87;;
17422;SDS011;8829;47.932;7.810;2023-02-15T05:27:46;8.07;;;7.27;;
17422;SDS011;8829;47.932;7.810;2023-02-15T05:30:30;9.10;;;8.00;;
17422;SDS011;8829;47.932;7.810;2023-02-15T05:32:57;8.40;;;7.60;;
17422;SDS011;8829;47.932;7.810;2023-02-15T05:35:24;8.63;;;7.73;;
17422;SDS011;8829;47.932;7.810;2023-02-15T05:37:50;9.23;;;8.23;;
17422;SDS011;8829;47.932;7.810;2023-02-15T05:40:17;11.00;;;7.70;;
17422;SDS011;8829;47.932;7.810;2023-02-15T05:42:44;9.53;;;7.73;;
17422;SDS011;8829;47.932;7.810;2023-02-15T05:45:12;10.37;;;8.10;;
17422;SDS011;8829;47.932;7.810;2023-02-15T05:47:39;9.50;;;7.67;;
17422;SDS011;8829;47.932;7.810;2023-02-15T05:50:06;9.40;;;7.80;;
17422;SDS011;8829;47.932;7.810;2023-02-15T05:52:33;12.47;;;8.50;;
17422;SDS011;8829;47.932;7.810;2023-02-15T05:55:00;9.50;;;7.83;;
17422;SDS011;8829;47.932;7.810;2023-02-15T05:57:27;11.67;;;8.73;;
17422;SDS011;8829;47.932;7.810;2023-02-15T05:59:54;11.67;;;8.13;;
17422;SDS011;8829;47.932;7.810;2023-02-15T06:02:22;13.67;;;8.70;;
17422;SDS011;8829;47.932;7.810;2023-02-15T06:04:49;10.83;;;8.30;;
17422;SDS011;8829;47.932;7.810;2023-02-15T06:07:16;9.80;;;8.47;;
17422;SDS011;8829;47.932;7.810;2023-02-15T06:09:42;14.47;;;9.90;;
17422;SDS011;8829;47.932;7.810;2023-02-15T06:12:09;15.70;;;10.47;;
17422;SDS011;8829;47.932;7.810;2023-02-15T06:14:36;15.53;;;10.30;;
17422;SDS011;8829;47.932;7.810;2023-02-15T06:17:02;14.60;;;10.03;;
17422;SDS011;8829;47.932;7.810;2023-02-15T06:19:30;12.57;;;7.97;;
17422;SDS011;8829;47.932;7.810;2023-02-15T06:21:57;12.20;;;8.47;;
17422;SDS011;8829;47.932;7.810;2023-02-15T06:24:24;11.17;;;7.97;;
17422;SDS011;8829;47.932;7.810;2023-02-15T06:26:50;12.47;;;8.80;;
17422;SDS011;8829;47.932;7.810;2023-02-15T06:29:17;11.57;;;9.17;;
17422;SDS011;8829;47.932;7.810;2023-02-15T06:31:44;10.37;;;8.83;;
17422;SDS011;8829;47.932;7.810;2023-02-15T06:34:10;12.03;;;9.97;;
17422;SDS011;8829;47.932;7.810;2023-02-15T06:36:38;11.93;;;9.40;;
17422;SDS011;8829;47.932;7.810;2023-02-15T06:39:05;13.73;;;8.83;;
17422;SDS011;8829;47.932;7.810;2023-02-15T06:41:32;12.10;;;8.70;;
17422;SDS011;8829;47.932;7.810;2023-02-15T06:43:58;10.80;;;8.70;;
17422;SDS011;8829;47.932;7.810;2023-02-15T06:46:25;10.03;;;8.30;;
17422;SDS011;8829;47.932;7.810;2023-02-15T06:48:52;9.37;;;7.63;;
17422;SDS011;8829;47.932;7.810;2023-02-15T06:51:19;9.93;;;7.93;;
17422;SDS011;8829;47.932;7.810;2023-02-15T06:53:47;12.17;;;9.17;;
17422;SDS011;8829;47.932;7.810;2023-02-15T06:56:13;14.30;;;11.00;;
17422;SDS011;8829;47.932;7.810;2023-02-15T06:58:40;15.07;;;10.67;;
17422;SDS011;8829;47.932;7.810;2023-02-15T07:01:08;14.13;;;11.03;;
17422;SDS011;8829;47.932;7.810;2023-02-15T07:03:35;16.73;;;12.37;;
17422;SDS011;8829;47.932;7.810;2023-02-15T07:06:02;17.30;;;11.83;;
17422;SDS011;8829;47.932;7.810;2023-02-15T07:08:33;23.93;;;19.40;;
17422;SDS011;8829;47.932;7.810;2023-02-15T07:11:01;18.17;;;13.30;;
17422;SDS011;8829;47.932;7.810;2023-02-15T07:13:42;15.40;;;11.17;;
17422;SDS011;8829;47.932;7.810;2023-02-15T07:16:09;15.80;;;10.77;;
17422;SDS011;8829;47.932;7.810;2023-02-15T07:18:36;13.50;;;10.63;;
17422;SDS011;8829;47.932;7.810;2023-02-15T07:21:03;18.87;;;10.57;;
17422;SDS011;8829;47.932;7.810;2023-02-15T07:23:29;16.83;;;11.00;;
17422;SDS011;8829;47.932;7.810;2023-02-15T07:25:56;15.97;;;11.50;;
17422;SDS011;8829;47.932;7.810;2023-02-15T07:28:25;16.23;;;12.67;;
17422;SDS011;8829;47.932;7.810;2023-02-15T07:30:52;13.87;;;10.70;;
17422;SDS011;8829;47.932;7.810;2023-02-15T07:33:18;11.17;;;8.77;;
17422;SDS011;8829;47.932;7.810;2023-02-15T07:35:52;8.50;;;7.53;;
17422;SDS011;8829;47.932;7.810;2023-02-15T07:38:20;8.40;;;7.53;;
17422;SDS011;8829;47.932;7.810;2023-02-15T07:40:47;9.47;;;8.47;;
17422;SDS011;8829;47.932;7.810;2023-02-15T07:43:14;9.83;;;8.60;;
17422;SDS011;8829;47.932;7.810;2023-02-15T07:45:42;8.47;;;7.60;;
17422;SDS011;8829;47.932;7.810;2023-02-15T07:48:09;10.67;;;8.60;;
17422;SDS011;8829;47.932;7.810;2023-02-15T07:50:35;11.77;;;9.40;;
17422;SDS011;8829;47.932;7.810;2023-02-15T07:53:02;11.53;;;8.97;;
17422;SDS011;8829;47.932;7.810;2023-02-15T07:55:29;11.03;;;8.73;;
17422;SDS011;8829;47.932;7.810;2023-02-15T07:57:56;10.37;;;9.17;;
17422;SDS011;8829;47.932;7.810;2023-02-15T08:00:23;10.97;;;9.20;;
17422;SDS011;8829;47.932;7.810;2023-02-15T08:02:52;11.90;;;10.07;;
17422;SDS011;8829;47.932;7.810;2023-02-15T08:05:34;15.10;;;9.53;;
17422;SDS011;8829;47.932;7.810;2023-02-15T08:08:00;13.17;;;9.30;;
17422;SDS011;8829;47.932;7.810;2023-02-15T08:10:27;9.60;;;8.53;;
17422;SDS011;8829;47.932;7.810;2023-02-15T08:13:07;10.70;;;8.40;;
17422;SDS011;8829;47.932;7.810;2023-02-15T08:15:34;12.57;;;9.00;;
17422;SDS011;8829;47.932;7.810;2023-02-15T08:18:02;9.43;;;8.00;;
17422;SDS011;8829;47.932;7.810;2023-02-15T08:20:29;15.40;;;8.50;;
17422;SDS011;8829;47.932;7.810;2023-02-15T08:22:56;13.53;;;9.43;;
17422;SDS011;8829;47.932;7.810;2023-02-15T08:25:23;12.47;;;9.40;;
17422;SDS011;8829;47.932;7.810;2023-02-15T08:27:49;17.57;;;9.10;;
17422;SDS011;8829;47.932;7.810;2023-02-15T08:30:16;10.67;;;8.97;;
17422;SDS011;8829;47.932;7.810;2023-02-15T08:32:43;13.03;;;8.97;;
17422;SDS011;8829;47.932;7.810;2023-02-15T08:35:11;9.70;;;8.43;;
17422;SDS011;8829;47.932;7.810;2023-02-15T08:37:37;12.93;;;8.40;;
17422;SDS011;8829;47.932;7.810;2023-02-15T08:40:04;12.23;;;10.17;;
17422;SDS011;8829;47.932;7.810;2023-02-15T08:42:32;10.93;;;8.93;;
17422;SDS011;8829;47.932;7.810;2023-02-15T08:44:59;14.27;;;10.90;;
17422;SDS011;8829;47.932;7.810;2023-02-15T08:47:25;13.87;;;11.23;;
17422;SDS011;8829;47.932;7.810;2023-02-15T08:49:52;12.50;;;10.23;;
17422;SDS011;8829;47.932;7.810;2023-02-15T08:52:20;12.43;;;10.27;;
17422;SDS011;8829;47.932;7.810;2023-02-15T08:54:47;13.90;;;10.00;;
17422;SDS011;8829;47.932;7.810;2023-02-15T08:57:13;13.98;;;9.95;;
17422;SDS011;8829;47.932;7.810;2023-02-15T08:59:40;12.50;;;10.03;;
17422;SDS011;8829;47.932;7.810;2023-02-15T09:02:09;11.87;;;9.57;;
17422;SDS011;8829;47.932;7.810;2023-02-15T09:04:36;13.33;;;9.83;;
17422;SDS011;8829;47.932;7.810;2023-02-15T09:07:03;17.20;;;10.40;;
17422;SDS011;8829;47.932;7.810;2023-02-15T09:09:31;15.83;;;11.77;;
17422;SDS011;8829;47.932;7.810;2023-02-15T09:11:58;21.17;;;13.20;;
17422;SDS011;8829;47.932;7.810;2023-02-15T09:14:24;22.77;;;14.33;;
17422;SDS011;8829;47.932;7.810;2023-02-15T09:16:52;22.05;;;15.27;;
17422;SDS011;8829;47.932;7.810;2023-02-15T09:19:20;19.67;;;14.70;;
17422;SDS011;8829;47.932;7.810;2023-02-15T09:21:48;14.80;;;12.03;;
17422;SDS011;8829;47.932;7.810;2023-02-15T09:24:15;13.17;;;9.93;;
17422;SDS011;8829;47.932;7.810;2023-02-15T09:26:45;10.90;;;9.17;;
17422;SDS011;8829;47.932;7.810;2023-02-15T09:29:14;13.63;;;9.30;;
17422;SDS011;8829;47.932;7.810;2023-02-15T09:31:42;11.43;;;8.57;;
17422;SDS011;8829;47.932;7.810;2023-02-15T09:34:10;9.20;;;7.83;;
17422;SDS011;8829;47.932;7.810;2023-02-15T09:36:38;11.50;;;8.17;;
17422;SDS011;8829;47.932;7.810;2023-02-15T09:39:07;9.60;;;8.60;;
17422;SDS011;8829;47.932;7.810;2023-02-15T09:41:44;10.17;;;8.83;;
17422;SDS011;8829;47.932;7.810;2023-02-15T09:44:29;9.40;;;8.37;;
17422;SDS011;8829;47.932;7.810;2023-02-15T09:47:22;11.27;;;9.40;;
17422;SDS011;8829;47.932;7.810;2023-02-15T09:50:03;14.10;;;9.17;;
17422;SDS011;8829;47.932;7.810;2023-02-15T09:52:44;10.03;;;8.60;;
17422;SDS011;8829;47.932;7.810;2023-02-15T09:55:27;9.83;;;8.47;;
17422;SDS011;8829;47.932;7.810;2023-02-15T09:58:05;10.87;;;8.20;;
17422;SDS011;8829;47.932;7.810;2023-02-15T10:00:39;9.13;;;8.23;;
17422;SDS011;8829;47.932;7.810;2023-02-15T10:03:21;10.40;;;8.98;;
17422;SDS011;8829;47.932;7.810;2023-02-15T10:06:07;14.20;;;9.10;;
17422;SDS011;8829;47.932;7.810;2023-02-15T10:08:51;12.87;;;9.77;;
17422;SDS011;8829;47.932;7.810;2023-02-15T10:11:27;14.10;;;9.40;;
17422;SDS011;8829;47.932;7.810;2023-02-15T10:14:15;11.93;;;9.67;;
17422;SDS011;8829;47.932;7.810;2023-02-15T10:17:06;12.73;;;10.20;;
17422;SDS011;8829;47.932;7.810;2023-02-15T10:19:43;15.47;;;9.80;;
17422;SDS011;8829;47.932;7.810;2023-02-15T10:22:21;12.73;;;10.70;;
17422;SDS011;8829;47.932;7.810;2023-02-15T10:25:07;14.13;;;11.17;;
17422;SDS011;8829;47.932;7.810;2023-02-15T10:27:50;13.10;;;10.20;;
17422;SDS011;8829;47.932;7.810;2023-02-15T10:30:19;13.07;;;11.07;;
17422;SDS011;8829;47.932;7.810;2023-02-15T10:32:56;12.73;;;11.40;;
17422;SDS011;8829;47.932;7.810;2023-02-15T10:35:27;44.50;;;12.70;;
17422;SDS011;8829;47.932;7.810;2023-02-15T10:38:05;31.07;;;13.23;;
17422;SDS011;8829;47.932;7.810;2023-02-15T10:40:40;99.43;;;17.07;;
17422;SDS011;8829;47.932;7.810;2023-02-15T10:43:19;23.15;;;14.15;;
17422;SDS011;8829;47.932;7.810;2023-02-15T10:46:02;16.70;;;12.07;;
17422;SDS011;8829;47.932;7.810;2023-02-15T10:51:29;15.63;;;11.60;;
17422;SDS011;8829;47.932;7.810;2023-02-15T10:54:09;63.77;;;13.20;;
17422;SDS011;8829;47.932;7.810;2023-02-15T10:56:49;20.03;;;10.93;;
17422;SDS011;8829;47.932;7.810;2023-02-15T10:59:32;17.40;;;11.70;;
17422;SDS011;8829;47.932;7.810;2023-02-15T11:02:14;46.50;;;13.83;;
17422;SDS011;8829;47.932;7.810;2023-02-15T11:04:53;28.83;;;11.70;;
17422;SDS011;8829;47.932;7.810;2023-02-15T11:07:26;13.07;;;11.17;;
17422;SDS011;8829;47.932;7.810;2023-02-15T11:10:00;14.30;;;11.27;;
17422;SDS011;8829;47.932;7.810;2023-02-15T11:12:32;12.97;;;10.33;;
17422;SDS011;8829;47.932;7.810;2023-02-15T11:15:00;15.07;;;11.90;;
17422;SDS011;8829;47.932;7.810;2023-02-15T11:17:33;16.87;;;12.73;;
17422;SDS011;8829;47.932;7.810;2023-02-15T11:20:05;14.05;;;12.15;;
17422;SDS011;8829;47.932;7.810;2023-02-15T11:22:41;15.23;;;12.43;;
17422;SDS011;8829;47.932;7.810;2023-02-15T11:25:14;15.37;;;11.47;;
17422;SDS011;8829;47.932;7.810;2023-02-15T11:27:44;14.43;;;11.67;;
17422;SDS011;8829;47.932;7.810;2023-02-15T11:30:13;14.87;;;12.40;;
17422;SDS011;8829;47.932;7.810;2023-02-15T11:32:43;17.53;;;12.07;;
17422;SDS011;8829;47.932;7.810;2023-02-15T11:35:17;15.55;;;13.93;;
17422;SDS011;8829;47.932;7.810;2023-02-15T11:37:49;14.77;;;11.97;;
17422;SDS011;8829;47.932;7.810;2023-02-15T11:40:21;16.53;;;12.33;;
17422;SDS011;8829;47.932;7.810;2023-02-15T11:42:51;15.13;;;11.97;;
17422;SDS011;8829;47.932;7.810;2023-02-15T11:45:22;15.87;;;11.40;;
17422;SDS011;8829;47.932;7.810;2023-02-15T11:47:54;14.50;;;11.57;;
17422;SDS011;8829;47.932;7.810;2023-02-15T11:50:22;18.07;;;11.63;;
17422;SDS011;8829;47.932;7.810;2023-02-15T11:52:52;13.57;;;11.70;;
17422;SDS011;8829;47.932;7.810;2023-02-15T11:55:22;15.23;;;12.93;;
17422;SDS011;8829;47.932;7.810;2023-02-15T11:57:51;15.97;;;11.93;;
17422;SDS011;8829;47.932;7.810;2023-02-15T12:00:24;12.77;;;11.40;;
17422;SDS011;8829;47.932;7.810;2023-02-15T12:03:02;15.87;;;10.87;;
17422;SDS011;8829;47.932;7.810;2023-02-15T12:05:35;13.93;;;11.73;;
17422;SDS011;8829;47.932;7.810;2023-02-15T12:08:09;13.73;;;11.77;;
17422;SDS011;8829;47.932;7.810;2023-02-15T12:10:42;15.98;;;14.23;;
17422;SDS011;8829;47.932;7.810;2023-02-15T12:13:16;14.60;;;12.60;;
17422;SDS011;8829;47.932;7.810;2023-02-15T12:15:45;14.50;;;11.40;;
17422;SDS011;8829;47.932;7.810;2023-02-15T12:18:24;14.97;;;11.80;;
17422;SDS011;8829;47.932;7.810;2023-02-15T12:21:03;14.27;;;11.77;;
17422;SDS011;8829;47.932;7.810;2023-02-15T12:23:33;14.17;;;11.60;;
17422;SDS011;8829;47.932;7.810;2023-02-15T12:26:05;15.83;;;12.33;;
17422;SDS011;8829;47.932;7.810;2023-02-15T12:28:33;15.07;;;11.20;;
17422;SDS011;8829;47.932;7.810;2023-02-15T12:31:01;13.87;;;11.90;;
17422;SDS011;8829;47.932;7.810;2023-02-15T12:33:34;19.13;;;12.30;;
17422;SDS011;8829;47.932;7.810;2023-02-15T12:36:09;12.40;;;11.07;;
17422;SDS011;8829;47.932;7.810;2023-02-15T12:38:38;15.60;;;11.63;;
17422;SDS011;8829;47.932;7.810;2023-02-15T12:41:10;15.47;;;12.07;;
17422;SDS011;8829;47.932;7.810;2023-02-15T12:43:49;25.30;;;12.07;;
17422;SDS011;8829;47.932;7.810;2023-02-15T12:46:30;25.03;;;12.23;;
17422;SDS011;8829;47.932;7.810;2023-02-15T12:49:06;17.00;;;11.87;;
17422;SDS011;8829;47.932;7.810;2023-02-15T12:51:44;15.97;;;11.43;;
17422;SDS011;8829;47.932;7.810;2023-02-15T12:59:50;14.53;;;11.63;;
17422;SDS011;8829;47.932;7.810;2023-02-15T13:02:20;14.43;;;11.90;;
17422;SDS011;8829;47.932;7.810;2023-02-15T13:04:54;13.23;;;11.73;;
17422;SDS011;8829;47.932;7.810;2023-02-15T13:07:23;16.77;;;13.40;;
17422;SDS011;8829;47.932;7.810;2023-02-15T13:09:56;15.23;;;12.13;;
17422;SDS011;8829;47.932;7.810;2023-02-15T13:12:24;13.23;;;11.83;;
17422;SDS011;8829;47.932;7.810;2023-02-15T13:14:53;15.93;;;13.60;;
17422;SDS011;8829;47.932;7.810;2023-02-15T13:17:21;15.37;;;11.60;;
17422;SDS011;8829;47.932;7.810;2023-02-15T13:19:56;12.97;;;11.53;;
17422;SDS011;8829;47.932;7.810;2023-02-15T13:22:25;16.80;;;13.13;;
17422;SDS011;8829;47.932;7.810;2023-02-15T13:24:58;13.40;;;12.00;;
17422;SDS011;8829;47.932;7.810;2023-02-15T13:27:30;13.40;;;12.00;;
17422;SDS011;8829;47.932;7.810;2023-02-15T13:30:02;12.93;;;11.53;;
17422;SDS011;8829;47.932;7.810;2023-02-15T13:32:37;14.77;;;12.40;;
17422;SDS011;8829;47.932;7.810;2023-02-15T13:35:10;14.43;;;12.07;;
17422;SDS011;8829;47.932;7.810;2023-02-15T13:37:45;15.67;;;13.20;;
17422;SDS011;8829;47.932;7.810;2023-02-15T13:40:22;13.73;;;12.07;;
17422;SDS011;8829;47.932;7.810;2023-02-15T13:42:53;15.93;;;12.50;;
17422;SDS011;8829;47.932;7.810;2023-02-15T13:45:28;13.33;;;11.67;;
17422;SDS011;8829;47.932;7.810;2023-02-15T13:48:04;17.40;;;12.30;;
17422;SDS011;8829;47.932;7.810;2023-02-15T13:50:49;15.27;;;12.53;;
17422;SDS011;8829;47.932;7.810;2023-02-15T13:53:32;14.10;;;11.50;;
17422;SDS011;8829;47.932;7.810;2023-02-15T13:56:13;15.47;;;12.37;;
17422;SDS011;8829;47.932;7.810;2023-02-15T13:58:54;13.10;;;11.60;;
17422;SDS011;8829;47.932;7.810;2023-02-15T14:01:44;18.43;;;13.23;;
17422;SDS011;8829;47.932;7.810;2023-02-15T14:07:13;13.33;;;11.93;;
17422;SDS011;8829;47.932;7.810;2023-02-15T14:10:02;13.63;;;11.47;;
17422;SDS011;8829;47.932;7.810;2023-02-15T14:12:48;14.07;;;11.33;;
17422;SDS011;8829;47.932;7.810;2023-02-15T14:15:28;33.47;;;27.40;;
17422;SDS011;8829;47.932;7.810;2023-02-15T14:18:05;24.27;;;16.37;;
17422;SDS011;8829;47.932;7.810;2023-02-15T14:20:45;23.10;;;18.10;;
17422;SDS011;8829;47.932;7.810;2023-02-15T14:23:23;18.40;;;12.27;;
17422;SDS011;8829;47.932;7.810;2023-02-15T14:26:00;13.33;;;12.00;;
17422;SDS011;8829;47.932;7.810;2023-02-15T14:28:32;14.30;;;12.80;;
17422;SDS011;8829;47.932;7.810;2023-02-15T14:31:05;14.97;;;13.17;;
17422;SDS011;8829;47.932;7.810;2023-02-15T14:33:36;21.10;;;16.80;;
17422;SDS011;8829;47.932;7.810;2023-02-15T14:36:05;20.50;;;13.57;;
17422;SDS011;8829;47.932;7.810;2023-02-15T14:38:42;20.60;;;16.15;;
17422;SDS011;8829;47.932;7.810;2023-02-15T14:41:17;13.90;;;12.37;;
17422;SDS011;8829;47.932;7.810;2023-02-15T14:43:48;13.30;;;10.80;;
17422;SDS011;8829;47.932;7.810;2023-02-15T14:46:23;12.47;;;10.03;;
17422;SDS011;8829;47.932;7.810;2023-02-15T14:48:57;10.87;;;9.30;;
17422;SDS011;8829;47.932;7.810;2023-02-15T14:57:24;12.80;;;10.43;;
17422;SDS011;8829;47.932;7.810;2023-02-15T14:59:55;15.07;;;11.07;;
17422;SDS011;8829;47.932;7.810;2023-02-15T15:02:24;14.57;;;10.37;;
17422;SDS011;8829;47.932;7.810;2023-02-15T15:04:58;14.03;;;10.23;;
17422;SDS011;8829;47.932;7.810;2023-02-15T15:07:36;15.10;;;9.80;;
17422;SDS011;8829;47.932;7.810;2023-02-15T15:13:33;13.10;;;9.13;;
17422;SDS011;8829;47.932;7.810;2023-02-15T15:18:53;10.07;;;8.73;;
17422;SDS011;8829;47.932;7.810;2023-02-15T15:42:41;13.40;;;9.10;;
17422;SDS011;8829;47.932;7.810;2023-02-15T15:48:18;12.50;;;10.50;;
17422;SDS011;8829;47.932;7.810;2023-02-15T15:50:58;15.57;;;12.17;;
17422;SDS011;8829;47.932;7.810;2023-02-15T15:53:27;16.73;;;13.27;;
17422;SDS011;8829;47.932;7.810;2023-02-15T15:55:58;15.33;;;12.20;;
17422;SDS011;8829;47.932;7.810;2023-02-15T15:58:28;15.97;;;12.97;;
17422;SDS011;8829;47.932;7.810;2023-02-15T16:00:58;19.07;;;13.03;;